Time;durP1;ratioP1;P1;durP2;ratioP2;P2;SDS_P1;SDS_P2;PMS_P1;PMS_P2;Temp;Humidity;BMP_temperature;BMP_pressure;BME280_temperature;BME280_humidity;BME280_pressure;Samples;Min_cycle;Max_cycle;Signal;HPM_P1;HPM_P2
2022/03/15 00:00:49;;;;;;;48.20;22.05;;;4.10;99.90;;;;;;4993356;28;20052;-70
2022/03/15 00:03:15;;;;;;;46.33;20.42;;;4.10;99.90;;;;;;4991855;28;20063;-70
2022/03/15 00:05:41;;;;;;;42.03;19.98;;;4.00;99.90;;;;;;4992292;28;20038;-70
2022/03/15 00:08:07;;;;;;;48.08;20.35;;;;;;;;;;4993536;28;20038;-70
2022/03/15 00:10:33;;;;;;;44.60;21.42;;;4.20;99.90;;;;;;4992100;28;20053;-70
2022/03/15 00:12:59;;;;;;;51.35;22.23;;;5.00;99.90;;;;;;4993406;28;20035;-70
2022/03/15 00:15:26;;;;;;;47.60;20.73;;;4.10;99.90;;;;;;4993590;28;20117;-70
2022/03/15 00:17:52;;;;;;;46.15;20.90;;;4.20;99.90;;;;;;4995636;28;20090;-70
2022/03/15 00:20:22;;;;;;;42.95;21.17;;;4.40;99.90;;;;;;4995795;28;20045;-70
2022/03/15 00:22:51;;;;;;;46.20;21.25;;;4.20;99.90;;;;;;4996910;28;20117;-70
2022/03/15 00:25:18;;;;;;;50.95;22.27;;;4.30;99.90;;;;;;4995318;28;20057;-70
2022/03/15 00:27:45;;;;;;;47.90;22.00;;;4.30;99.90;;;;;;4996763;28;20046;-70
2022/03/15 00:30:12;;;;;;;44.20;21.15;;;4.10;99.90;;;;;;4996699;28;20114;-70
2022/03/15 00:32:38;;;;;;;46.67;20.35;;;5.00;99.90;;;;;;4996771;28;20105;-70
2022/03/15 00:35:08;;;;;;;51.17;22.00;;;4.00;99.90;;;;;;4996644;28;20046;-70
2022/03/15 00:37:36;;;;;;;43.17;20.60;;;4.30;99.90;;;;;;4995271;28;20054;-70
2022/03/15 00:40:04;;;;;;;45.13;20.40;;;3.90;99.90;;;;;;4996475;28;20046;-70
2022/03/15 00:42:29;;;;;;;42.13;21.08;;;4.10;99.90;;;;;;4995317;28;20078;-70
2022/03/15 00:44:55;;;;;;;43.78;19.88;;;4.00;99.90;;;;;;4996050;28;20088;-70
2022/03/15 00:47:24;;;;;;;41.15;19.60;;;4.20;99.90;;;;;;4996436;28;20042;-70
2022/03/15 00:49:49;;;;;;;47.03;19.65;;;3.90;99.90;;;;;;4996335;28;20379;-70
2022/03/15 00:52:15;;;;;;;43.28;19.00;;;4.10;99.90;;;;;;4996071;28;20042;-70
2022/03/15 00:54:41;;;;;;;46.28;19.75;;;;;;;;;;4996104;28;20039;-70
2022/03/15 00:57:08;;;;;;;41.85;19.75;;;;;;;;;;4994791;28;20046;-70
2022/03/15 00:59:33;;;;;;;41.20;20.02;;;3.80;99.90;;;;;;4994715;28;20053;-70
2022/03/15 01:02:03;;;;;;;38.00;21.35;;;3.90;99.90;;;;;;4996250;28;20038;-71
2022/03/15 01:04:31;;;;;;;43.88;21.10;;;3.80;99.90;;;;;;4994693;28;20055;-70
2022/03/15 01:06:57;;;;;;;44.03;20.58;;;4.10;99.90;;;;;;4995903;28;20486;-70
2022/03/15 01:09:23;;;;;;;41.42;19.58;;;;;;;;;;4994489;28;20035;-70
2022/03/15 01:11:48;;;;;;;36.67;19.67;;;3.90;99.90;;;;;;4994486;28;20043;-70
2022/03/15 01:14:14;;;;;;;40.70;18.92;;;3.60;99.90;;;;;;4995590;28;20046;-71
2022/03/15 01:16:40;;;;;;;41.97;21.35;;;3.50;99.90;;;;;;4978475;28;20065;-71
2022/03/15 01:19:07;;;;;;;34.22;18.63;;;3.70;99.90;;;;;;4995157;28;20510;-70
2022/03/15 01:21:38;;;;;;;45.70;21.13;;;;;;;;;;4995506;28;20565;-71
2022/03/15 01:24:07;;;;;;;47.28;24.23;;;3.80;99.90;;;;;;4994565;28;20034;-71
2022/03/15 01:26:33;;;;;;;51.35;26.05;;;4.00;99.90;;;;;;4994027;28;20051;-70
2022/03/15 01:29:02;;;;;;;43.47;21.83;;;3.90;99.90;;;;;;4993637;28;20038;-71
2022/03/15 01:31:29;;;;;;;43.95;22.58;;;3.50;99.90;;;;;;4995642;28;20034;-71
2022/03/15 01:33:55;;;;;;;49.20;23.17;;;3.70;99.90;;;;;;4995595;28;20038;-70
2022/03/15 01:36:21;;;;;;;48.55;23.27;;;3.60;99.90;;;;;;4995332;28;20050;-70
2022/03/15 01:38:47;;;;;;;53.20;23.70;;;;;;;;;;4995263;28;20069;-70
2022/03/15 01:41:14;;;;;;;44.85;22.40;;;3.90;99.90;;;;;;4995084;28;20061;-70
2022/03/15 01:43:41;;;;;;;43.47;22.77;;;3.80;99.90;;;;;;4994203;28;20046;-70
2022/03/15 01:46:07;;;;;;;48.50;23.02;;;4.00;99.90;;;;;;4993853;28;20189;-70
2022/03/15 01:48:33;;;;;;;46.47;24.42;;;3.60;99.90;;;;;;4995164;28;20125;-70
2022/03/15 01:50:59;;;;;;;48.70;23.73;;;;;;;;;;4995084;28;20038;-70
2022/03/15 01:53:26;;;;;;;52.00;24.65;;;4.40;99.90;;;;;;4994901;28;20505;-71
2022/03/15 01:55:52;;;;;;;53.47;26.05;;;3.90;99.90;;;;;;4993574;28;20045;-71
2022/03/15 01:58:18;;;;;;;45.17;23.83;;;3.70;99.90;;;;;;4994906;28;20038;-70
2022/03/15 02:00:45;;;;;;;49.90;22.83;;;;;;;;;;5051780;22;21192;-95
2022/03/15 02:03:19;;;;;;;50.72;24.13;;;3.80;99.90;;;;;;5015077;28;20068;-96
2022/03/15 02:05:45;;;;;;;55.85;25.55;;;;;;;;;;5029506;28;20037;-96
2022/03/15 02:08:13;;;;;;;50.22;24.30;;;3.70;99.90;;;;;;5011010;28;20072;-96
2022/03/15 02:10:39;;;;;;;56.33;26.35;;;;;;;;;;5009813;28;20038;-96
2022/03/15 02:13:11;;;;;;;51.22;23.33;;;;;;;;;;5012068;28;20065;-96
2022/03/15 02:15:37;;;;;;;45.75;23.55;;;3.70;99.90;;;;;;4995867;28;20046;-96
2022/03/15 02:18:04;;;;;;;52.28;24.90;;;3.70;99.90;;;;;;5016074;28;20046;-96
2022/03/15 02:20:31;;;;;;;57.05;25.70;;;;;;;;;;4992705;28;20045;-96
2022/03/15 02:22:57;;;;;;;52.63;23.08;;;;;;;;;;5009015;28;20362;-96
2022/03/15 02:25:26;;;;;;;51.78;23.83;;;;;;;;;;5024486;28;20065;-96
2022/03/15 02:27:52;;;;;;;41.28;22.25;;;;;;;;;;5007405;28;20353;-96
2022/03/15 02:30:21;;;;;;;46.67;21.33;;;;;;;;;;4991556;28;20101;-96
2022/03/15 02:32:48;;;;;;;46.97;20.85;;;;;;;;;;5009925;28;20108;-96
2022/03/15 02:35:23;;;;;;;49.53;21.52;;;;;;;;;;4993870;28;20042;-96
2022/03/15 02:37:52;;;;;;;39.72;21.60;;;;;;;;;;5008141;28;20056;-96
2022/03/15 02:40:35;;;;;;;48.35;22.10;;;3.40;99.90;;;;;;4983891;28;20055;-96
2022/03/15 02:43:01;;;;;;;46.50;22.17;;;;;;;;;;4982324;28;20097;-96
2022/03/15 02:48:30;;;;;;;49.15;21.95;;;;;;;;;;4980145;28;20443;-96
2022/03/15 02:50:58;;;;;;;46.97;22.10;;;;;;;;;;4978980;28;20042;-96
2022/03/15 02:53:28;;;;;;;46.47;22.30;;;;;;;;;;4963242;28;20046;-96
2022/03/15 02:55:54;;;;;;;53.67;23.60;;;;;;;;;;4979933;28;20047;-96
2022/03/15 02:58:20;;;;;;;53.50;23.98;;;;;;;;;;4986628;28;20050;-96
2022/03/15 03:00:47;;;;;;;43.70;22.25;;;;;;;;;;4983258;28;20054;-96
2022/03/15 03:03:13;;;;;;;48.28;22.85;;;;;;;;;;4983306;28;20047;-96
2022/03/15 03:05:42;;;;;;;50.63;22.17;;;;;;;;;;4980859;28;20114;-96
2022/03/15 03:08:11;;;;;;;46.63;21.15;;;;;;;;;;4983749;28;20042;-96
2022/03/15 03:10:40;;;;;;;45.47;21.88;;;;;;;;;;4982803;28;20047;-96
2022/03/15 03:13:09;;;;;;;54.45;24.67;;;;;;;;;;4980184;28;20098;-96
2022/03/15 03:15:35;;;;;;;50.95;23.83;;;;;;;;;;4980597;28;20057;-96
2022/03/15 03:18:01;;;;;;;49.35;22.52;;;;;;;;;;5003011;28;20069;-96
2022/03/15 03:20:28;;;;;;;52.53;23.48;;;;;;;;;;4989315;28;20085;-96
2022/03/15 03:23:09;;;;;;;43.70;22.85;;;;;;;;;;4960018;28;20053;-96
2022/03/15 03:25:39;;;;;;;48.22;22.90;;;;;;;;;;4951019;28;20122;-96
2022/03/15 03:28:14;;;;;;;43.03;22.40;;;;;;;;;;4950541;28;20070;-96
2022/03/15 03:30:46;;;;;;;48.03;24.17;;;3.30;99.90;;;;;;4964446;28;20051;-96
2022/03/15 03:33:13;;;;;;;49.47;25.05;;;;;;;;;;4966688;28;20049;-96
2022/03/15 03:35:39;;;;;;;55.67;26.20;;;;;;;;;;4949800;28;20145;-96
2022/03/15 03:38:14;;;;;;;57.53;26.17;;;;;;;;;;4965236;28;20051;-96
2022/03/15 03:40:40;;;;;;;50.75;25.25;;;;;;;;;;4967541;28;20054;-96
2022/03/15 03:43:06;;;;;;;79.60;35.08;;;;;;;;;;4967855;28;20086;-96
2022/03/15 03:45:32;;;;;;;73.35;35.45;;;;;;;;;;4964515;28;20097;-96
2022/03/15 03:47:58;;;;;;;65.18;31.63;;;;;;;;;;4945650;28;20094;-96
2022/03/15 03:50:24;;;;;;;75.43;37.38;;;;;;;;;;4959943;28;20102;-96
2022/03/15 03:52:51;;;;;;;75.25;35.45;;;;;;;;;;4970263;28;20050;-96
2022/03/15 03:55:17;;;;;;;83.55;35.58;;;;;;;;;;4991201;28;20050;-96
2022/03/15 03:57:43;;;;;;;74.40;34.75;;;;;;;;;;4964663;28;20170;-96
2022/03/15 04:00:09;;;;;;;75.35;34.33;;;;;;;;;;4981278;28;20133;-96
2022/03/15 04:02:35;;;;;;;82.38;34.85;;;;;;;;;;4986877;28;20053;-96
2022/03/15 04:05:02;;;;;;;63.40;31.63;;;;;;;;;;4986535;28;20093;-96
2022/03/15 04:07:29;;;;;;;66.63;32.42;;;;;;;;;;5003215;28;20053;-96
2022/03/15 04:09:55;;;;;;;64.32;30.10;;;;;;;;;;4988366;28;20045;-96
2022/03/15 04:12:23;;;;;;;61.58;29.90;;;;;;;;;;5004271;28;20188;-96
2022/03/15 04:14:49;;;;;;;59.42;30.50;;;;;;;;;;5003979;28;20149;-96
2022/03/15 04:17:16;;;;;;;61.83;30.77;;;;;;;;;;4985680;28;20041;-96
2022/03/15 04:19:42;;;;;;;53.78;29.23;;;;;;;;;;5002927;28;20038;-96
2022/03/15 04:22:08;;;;;;;64.00;30.23;;;;;;;;;;5023176;28;20053;-96
2022/03/15 04:24:34;;;;;;;64.72;32.85;;;;;;;;;;4970317;28;20474;-96
2022/03/15 04:27:01;;;;;;;71.82;33.22;;;;;;;;;;4985984;28;20042;-96
2022/03/15 04:29:28;;;;;;;62.35;33.25;;;3.70;99.90;;;;;;5003323;28;20041;-96
2022/03/15 04:31:54;;;;;;;66.75;32.45;;;;;;;;;;4984287;28;20046;-96
2022/03/15 04:34:20;;;;;;;71.13;36.83;;;;;;;;;;4983872;28;20046;-96
2022/03/15 04:36:46;;;;;;;66.25;34.97;;;;;;;;;;5000811;28;20161;-96
2022/03/15 04:39:12;;;;;;;77.03;37.95;;;;;;;;;;5001104;28;20041;-96
2022/03/15 04:41:39;;;;;;;76.63;38.53;;;;;;;;;;4983296;28;20060;-96
2022/03/15 04:44:06;;;;;;;85.32;41.20;;;;;;;;;;4984835;28;20135;-95
2022/03/15 04:46:32;;;;;;;112.10;48.97;;;3.90;99.90;;;;;;5016702;28;20050;-96
2022/03/15 04:49:02;;;;;;;109.95;49.08;;;;;;;;;;4992258;28;20104;-96
2022/03/15 04:54:03;;;;;;;114.93;53.17;;;;;;;;;;5073442;28;20048;-52
2022/03/15 04:56:29;;;;;;;117.63;53.40;;;3.90;99.90;;;;;;5075711;28;20048;-52
2022/03/15 04:58:55;;;;;;;121.93;52.88;;;;;;;;;;5075368;28;20117;-53
2022/03/15 05:01:21;;;;;;;133.02;56.67;;;4.10;99.90;;;;;;5075277;28;20047;-54
2022/03/15 05:03:46;;;;;;;118.50;53.78;;;4.30;99.90;;;;;;5074177;28;20038;-54
2022/03/15 05:06:12;;;;;;;129.60;56.28;;;4.20;99.90;;;;;;5075275;28;20128;-54
2022/03/15 05:08:38;;;;;;;133.50;55.83;;;4.40;99.90;;;;;;5040781;28;20068;-53
2022/03/15 05:11:06;;;;;;;118.47;52.75;;;4.30;99.90;;;;;;5075682;28;20037;-54
2022/03/15 05:13:40;;;;;;;134.18;57.22;;;4.40;99.90;;;;;;5074828;28;20174;-54
2022/03/15 05:16:10;;;;;;;126.60;56.83;;;4.20;99.90;;;;;;5075032;28;20139;-54
2022/03/15 05:18:36;;;;;;;123.53;55.83;;;4.30;99.90;;;;;;5074315;28;20045;-53
2022/03/15 05:21:03;;;;;;;116.93;52.47;;;4.50;99.90;;;;;;5074888;28;20479;-54
2022/03/15 05:23:29;;;;;;;121.68;56.08;;;;;;;;;;5074839;28;20058;-54
2022/03/15 05:25:55;;;;;;;139.18;57.35;;;4.50;99.90;;;;;;5074895;28;20411;-54
2022/03/15 05:28:21;;;;;;;124.10;55.60;;;4.60;99.90;;;;;;5074586;28;20039;-54
2022/03/15 05:30:46;;;;;;;135.90;58.20;;;4.60;99.90;;;;;;5074691;28;20032;-54
2022/03/15 05:33:12;;;;;;;131.05;57.42;;;4.60;99.90;;;;;;5073169;28;20634;-53
2022/03/15 05:35:38;;;;;;;123.72;55.25;;;4.20;99.90;;;;;;5074564;28;20051;-55
2022/03/15 05:38:04;;;;;;;128.55;56.08;;;4.70;99.90;;;;;;5074624;28;20048;-53
2022/03/15 05:40:30;;;;;;;127.95;57.70;;;4.70;99.90;;;;;;5074032;28;20040;-54
2022/03/15 05:42:56;;;;;;;122.03;55.03;;;4.70;99.90;;;;;;5070208;28;20044;-54
2022/03/15 05:45:26;;;;;;;120.72;55.85;;;;;;;;;;5040731;28;20048;-55
2022/03/15 05:47:52;;;;;;;127.70;57.92;;;;;;;;;;5053951;28;20045;-54
2022/03/15 05:50:18;;;;;;;134.40;56.45;;;5.10;99.90;;;;;;5065249;28;20037;-54
2022/03/15 05:52:44;;;;;;;128.48;58.13;;;;;;;;;;5065434;28;20063;-54
2022/03/15 05:55:11;;;;;;;124.32;57.92;;;;;;;;;;5060032;28;20040;-54
2022/03/15 05:57:37;;;;;;;124.72;54.63;;;5.00;99.90;;;;;;5053478;28;20055;-54
2022/03/15 06:00:05;;;;;;;118.85;54.55;;;5.50;99.90;;;;;;5053672;28;20233;-55
2022/03/15 06:02:31;;;;;;;121.40;55.60;;;4.60;99.90;;;;;;5053582;28;20377;-54
2022/03/15 06:04:59;;;;;;;111.57;52.67;;;5.70;99.90;;;;;;5054133;28;20040;-55
2022/03/15 06:07:26;;;;;;;114.55;54.10;;;5.20;99.90;;;;;;5054093;28;20037;-53
2022/03/15 06:09:52;;;;;;;109.93;53.00;;;;;;;;;;5053660;28;20043;-55
2022/03/15 06:12:20;;;;;;;113.15;52.80;;;5.20;99.90;;;;;;5054137;28;20037;-54
2022/03/15 06:14:46;;;;;;;113.30;52.15;;;;;;;;;;5053535;28;20090;-54
2022/03/15 06:17:12;;;;;;;103.65;51.25;;;4.80;99.90;;;;;;5052823;28;20044;-53
2022/03/15 06:19:38;;;;;;;105.75;49.50;;;5.30;99.90;;;;;;5053801;28;20037;-55
2022/03/15 06:22:04;;;;;;;103.15;50.47;;;4.90;99.90;;;;;;5053763;28;20037;-53
2022/03/15 06:24:30;;;;;;;96.40;49.78;;;5.40;99.90;;;;;;5053641;28;20041;-54
2022/03/15 06:26:57;;;;;;;98.30;49.60;;;5.30;99.90;;;;;;5053631;28;20402;-54
2022/03/15 06:29:23;;;;;;;91.70;47.67;;;5.30;99.90;;;;;;5053687;28;20037;-54
2022/03/15 06:31:49;;;;;;;96.53;49.67;;;5.40;99.90;;;;;;5053875;28;20033;-55
2022/03/15 06:34:14;;;;;;;97.60;48.42;;;5.30;99.90;;;;;;5053745;28;20373;-55
2022/03/15 06:36:41;;;;;;;100.75;47.75;;;5.50;99.90;;;;;;5053388;28;20377;-55
2022/03/15 06:39:07;;;;;;;89.00;47.45;;;5.30;99.90;;;;;;5053456;28;20045;-54
2022/03/15 06:41:39;;;;;;;86.70;46.70;;;5.30;99.90;;;;;;5053793;28;20537;-55
2022/03/15 06:44:06;;;;;;;81.75;46.53;;;5.40;99.90;;;;;;5053801;28;20041;-55
2022/03/15 06:46:32;;;;;;;88.88;46.97;;;5.30;99.90;;;;;;5053381;28;20056;-54
2022/03/15 06:48:59;;;;;;;81.15;45.88;;;5.60;99.90;;;;;;5053372;28;20065;-59
2022/03/15 06:51:25;;;;;;;79.22;45.55;;;5.40;99.90;;;;;;5053427;28;20385;-59
2022/03/15 06:53:51;;;;;;;81.82;46.72;;;5.60;99.90;;;;;;5053172;28;20088;-59
2022/03/15 06:56:17;;;;;;;76.32;44.63;;;5.90;99.90;;;;;;5053394;28;20056;-59
2022/03/15 06:58:43;;;;;;;86.18;46.28;;;5.60;99.90;;;;;;5053141;28;20480;-59
2022/03/15 07:01:10;;;;;;;80.97;45.28;;;5.50;99.90;;;;;;5053203;28;20071;-59
2022/03/15 07:03:35;;;;;;;81.47;46.58;;;5.80;99.90;;;;;;5053576;28;20045;-59
2022/03/15 07:06:02;;;;;;;76.40;44.38;;;5.70;99.90;;;;;;5053036;28;20068;-59
2022/03/15 07:08:28;;;;;;;81.50;44.40;;;5.70;99.90;;;;;;5053362;28;20075;-58
2022/03/15 07:10:54;;;;;;;78.63;45.58;;;6.10;99.90;;;;;;5053284;28;20060;-59
2022/03/15 07:13:19;;;;;;;78.90;45.28;;;5.70;99.90;;;;;;5053370;28;20112;-59
2022/03/15 07:15:46;;;;;;;70.97;43.47;;;;;;;;;;5053015;28;20392;-59
2022/03/15 07:18:12;;;;;;;72.90;44.65;;;5.50;99.90;;;;;;5053043;28;20041;-59
2022/03/15 07:20:37;;;;;;;73.90;44.05;;;5.70;99.90;;;;;;5052900;28;20037;-58
2022/03/15 07:23:04;;;;;;;72.30;43.05;;;6.50;99.90;;;;;;5053192;28;20043;-58
2022/03/15 07:25:29;;;;;;;72.72;44.03;;;6.30;99.90;;;;;;5052876;28;20408;-59
2022/03/15 07:27:56;;;;;;;71.38;44.42;;;6.30;99.90;;;;;;5057196;28;20051;-59
2022/03/15 07:30:22;;;;;;;65.95;41.80;;;6.20;99.90;;;;;;5057015;28;20051;-59
2022/03/15 07:32:48;;;;;;;75.18;42.30;;;6.80;99.90;;;;;;5056930;28;20116;-59
2022/03/15 07:35:14;;;;;;;65.07;41.28;;;6.20;99.90;;;;;;5057436;28;20067;-59
2022/03/15 07:37:51;;;;;;;63.70;41.00;;;6.40;99.90;;;;;;5057066;28;20045;-59
2022/03/15 07:40:17;;;;;;;64.53;41.05;;;6.30;99.90;;;;;;5056993;28;20037;-59
2022/03/15 07:42:43;;;;;;;67.53;41.55;;;6.30;99.90;;;;;;5055554;28;20561;-59
2022/03/15 07:45:10;;;;;;;63.55;40.60;;;6.20;99.90;;;;;;5055644;28;20049;-58
2022/03/15 07:47:35;;;;;;;62.35;39.80;;;6.30;99.90;;;;;;5056702;28;20037;-58
2022/03/15 07:50:01;;;;;;;66.65;39.88;;;6.80;99.90;;;;;;5056547;28;20047;-59
2022/03/15 07:52:27;;;;;;;61.10;39.45;;;6.10;99.90;;;;;;5056387;28;20495;-58
2022/03/15 07:54:53;;;;;;;56.38;38.95;;;6.40;99.90;;;;;;5056871;28;20033;-59
2022/03/15 07:57:19;;;;;;;63.20;39.28;;;6.90;99.90;;;;;;5056724;28;20033;-59
2022/03/15 07:59:46;;;;;;;63.22;38.92;;;7.00;99.90;;;;;;5056678;28;20033;-58
2022/03/15 08:02:12;;;;;;;62.20;39.13;;;6.30;99.90;;;;;;5056479;28;20048;-59
2022/03/15 08:04:39;;;;;;;59.17;39.45;;;;;;;;;;5056264;28;20507;-58
2022/03/15 08:07:05;;;;;;;58.45;38.97;;;6.40;99.90;;;;;;5056537;28;20056;-59
2022/03/15 08:09:30;;;;;;;61.90;38.03;;;6.50;99.90;;;;;;5056657;28;20036;-58
2022/03/15 08:11:56;;;;;;;65.78;39.85;;;6.80;99.90;;;;;;5056335;28;20477;-58
2022/03/15 08:14:22;;;;;;;59.42;39.13;;;6.70;99.90;;;;;;5056242;28;20037;-60
2022/03/15 08:16:48;;;;;;;62.38;38.67;;;7.10;99.90;;;;;;5056153;28;20087;-59
2022/03/15 08:19:13;;;;;;;66.90;37.95;;;6.10;99.90;;;;;;5055976;28;20071;-59
2022/03/15 08:21:39;;;;;;;55.92;38.20;;;7.30;99.90;;;;;;5056310;28;20047;-60
2022/03/15 08:24:05;;;;;;;61.00;38.40;;;6.70;99.90;;;;;;5056511;28;20111;-60
2022/03/15 08:26:31;;;;;;;63.72;37.25;;;6.40;99.90;;;;;;5054697;28;20137;-59
2022/03/15 08:28:56;;;;;;;65.18;37.40;;;6.70;99.90;;;;;;5055980;28;20037;-59
2022/03/15 08:31:22;;;;;;;62.85;37.40;;;6.70;99.90;;;;;;5056379;28;20037;-59
2022/03/15 08:33:48;;;;;;;57.30;38.22;;;6.50;99.90;;;;;;5056099;28;20072;-59
2022/03/15 08:36:14;;;;;;;54.72;36.22;;;6.80;99.90;;;;;;5056052;28;20095;-59
2022/03/15 08:38:41;;;;;;;55.35;35.65;;;6.70;99.90;;;;;;5055418;28;20123;-60
2022/03/15 08:41:07;;;;;;;58.53;36.95;;;6.90;99.90;;;;;;5055764;28;20531;-59
2022/03/15 08:43:32;;;;;;;50.35;35.35;;;7.30;99.90;;;;;;5055720;28;20037;-59
2022/03/15 08:45:58;;;;;;;55.20;36.58;;;7.10;99.90;;;;;;5055570;28;20404;-59
2022/03/15 08:48:24;;;;;;;49.67;35.20;;;6.60;99.90;;;;;;5054208;28;20037;-59
2022/03/15 08:50:50;;;;;;;51.22;35.95;;;7.10;99.90;;;;;;5055762;28;20037;-59
2022/03/15 08:53:15;;;;;;;55.65;35.50;;;6.60;99.90;;;;;;5054176;28;20049;-59
2022/03/15 08:55:42;;;;;;;53.33;34.75;;;7.40;99.90;;;;;;5055539;28;20105;-59
2022/03/15 08:58:08;;;;;;;53.35;35.13;;;;;;;;;;5055430;28;20068;-59
2022/03/15 09:00:34;;;;;;;52.13;34.83;;;6.70;99.90;;;;;;5055390;28;20046;-59
2022/03/15 09:02:59;;;;;;;53.63;35.75;;;7.30;99.90;;;;;;5055202;28;20044;-59
2022/03/15 09:05:26;;;;;;;54.92;36.78;;;;;;;;;;5055159;28;20041;-59
2022/03/15 09:07:53;;;;;;;49.22;36.05;;;7.00;99.90;;;;;;5055380;28;20116;-60
2022/03/15 09:10:23;;;;;;;56.63;36.67;;;7.40;99.90;;;;;;5055303;28;20400;-59
2022/03/15 09:12:49;;;;;;;51.42;35.08;;;7.50;99.90;;;;;;5055173;28;20043;-59
2022/03/15 09:15:15;;;;;;;52.30;36.47;;;7.50;99.90;;;;;;5054987;28;20131;-59
2022/03/15 09:17:41;;;;;;;45.80;33.95;;;7.00;99.90;;;;;;5055242;28;20531;-59
2022/03/15 09:20:08;;;;;;;51.58;34.35;;;7.80;99.90;;;;;;5055138;28;20045;-60
2022/03/15 09:22:34;;;;;;;51.00;34.15;;;7.30;99.90;;;;;;5054856;28;20073;-59
2022/03/15 09:25:01;;;;;;;43.67;31.60;;;;;;;;;;5053657;28;20071;-56
2022/03/15 09:27:26;;;;;;;42.90;31.58;;;7.80;99.90;;;;;;5053591;28;20037;-56
2022/03/15 09:29:54;;;;;;;45.92;31.40;;;7.60;99.90;;;;;;5054752;28;20033;-56
2022/03/15 09:32:20;;;;;;;43.80;31.15;;;;;;;;;;5054910;28;20037;-56
2022/03/15 09:34:45;;;;;;;50.05;30.83;;;7.60;99.90;;;;;;5054977;28;20037;-56
2022/03/15 09:37:12;;;;;;;40.90;31.63;;;7.50;99.90;;;;;;5053530;28;20049;-56
2022/03/15 09:39:37;;;;;;;44.78;31.45;;;7.50;99.90;;;;;;5054853;28;20047;-57
2022/03/15 09:42:07;;;;;;;44.42;31.13;;;8.00;99.90;;;;;;5053391;28;20040;-56
2022/03/15 09:44:35;;;;;;;43.83;31.08;;;7.90;99.90;;;;;;5053147;28;20514;-55
2022/03/15 09:47:03;;;;;;;48.33;32.13;;;7.90;99.90;;;;;;5054390;28;20033;-56
2022/03/15 09:49:31;;;;;;;46.97;32.58;;;8.30;99.90;;;;;;5053914;28;20037;-56
2022/03/15 09:51:57;;;;;;;47.40;32.10;;;8.10;99.90;;;;;;5054300;28;20510;-56
2022/03/15 09:54:25;;;;;;;47.08;30.80;;;8.20;99.90;;;;;;5054321;28;20480;-56
2022/03/15 09:56:51;;;;;;;43.25;29.77;;;8.20;99.90;;;;;;5054249;28;20045;-56
2022/03/15 09:59:22;;;;;;;43.13;30.45;;;8.70;99.90;;;;;;5054231;28;20476;-56
2022/03/15 10:01:50;;;;;;;41.28;28.83;;;8.10;99.90;;;;;;5054437;28;20083;-56
2022/03/15 10:04:21;;;;;;;40.58;29.33;;;8.10;99.90;;;;;;5054269;28;20435;-56
2022/03/15 10:06:47;;;;;;;45.35;28.92;;;8.20;99.90;;;;;;5053986;28;20037;-56
2022/03/15 10:09:14;;;;;;;39.22;29.48;;;8.50;99.90;;;;;;5054137;28;20029;-56
2022/03/15 10:11:41;;;;;;;40.17;29.25;;;8.70;99.90;;;;;;5052719;28;20091;-56
2022/03/15 10:14:08;;;;;;;38.20;28.23;;;8.30;99.90;;;;;;5054011;28;20484;-56
2022/03/15 10:16:41;;;;;;;40.17;27.63;;;8.90;99.90;;;;;;5052926;28;20490;-56
2022/03/15 10:19:12;;;;;;;41.55;26.98;;;8.80;99.90;;;;;;5053961;28;20081;-56
2022/03/15 10:21:55;;;;;;;44.90;26.67;;;8.40;99.90;;;;;;5053913;28;20103;-56
2022/03/15 10:24:23;;;;;;;42.95;29.25;;;8.40;99.90;;;;;;5052860;28;20383;-56
2022/03/15 10:26:51;;;;;;;45.95;27.60;;;9.10;99.90;;;;;;5052415;28;20041;-56
2022/03/15 10:29:18;;;;;;;40.58;27.55;;;9.10;99.90;;;;;;5052478;28;20472;-56
2022/03/15 10:31:45;;;;;;;38.30;26.80;;;9.00;99.90;;;;;;5053753;28;20029;-56
2022/03/15 10:34:12;;;;;;;41.70;27.20;;;9.00;99.90;;;;;;5053615;28;20037;-57
2022/03/15 10:36:44;;;;;;;35.95;26.40;;;9.80;99.90;;;;;;5053471;28;20033;-56
2022/03/15 10:39:12;;;;;;;33.92;26.00;;;9.30;99.90;;;;;;5053828;28;20045;-57
2022/03/15 10:41:59;;;;;;;41.30;26.02;;;9.20;99.90;;;;;;5053700;28;20044;-56
2022/03/15 10:44:36;;;;;;;38.95;26.60;;;9.80;99.90;;;;;;5053558;28;20037;-57
2022/03/15 10:47:09;;;;;;;40.42;25.42;;;9.30;99.90;;;;;;5053260;28;20098;-56
2022/03/15 10:49:49;;;;;;;38.42;25.63;;;9.60;99.90;;;;;;5053605;28;20060;-56
2022/03/15 10:52:35;;;;;;;37.42;26.33;;;9.20;99.90;;;;;;5053362;28;20404;-57
2022/03/15 10:55:22;;;;;;;33.35;24.42;;;9.40;99.90;;;;;;5052160;28;20098;-56
2022/03/15 10:57:50;;;;;;;35.05;24.52;;;9.20;99.90;;;;;;5053507;28;20089;-57
2022/03/15 11:00:21;;;;;;;37.95;24.85;;;10.00;99.90;;;;;;5053377;28;20045;-57
2022/03/15 11:02:48;;;;;;;41.80;25.40;;;9.40;99.90;;;;;;5053209;28;20040;-57
2022/03/15 11:05:29;;;;;;;36.08;24.73;;;9.80;99.90;;;;;;5053288;28;20037;-56
2022/03/15 11:07:56;;;;;;;38.45;24.70;;;9.70;99.90;;;;;;5052197;28;20048;-57
2022/03/15 11:10:23;;;;;;;35.95;25.20;;;9.60;99.90;;;;;;5053089;28;20124;-57
2022/03/15 11:13:07;;;;;;;33.85;24.55;;;9.90;99.90;;;;;;5053230;28;20102;-57
2022/03/15 11:15:34;;;;;;;35.35;24.60;;;9.50;99.90;;;;;;5053374;28;20090;-57
2022/03/15 11:18:05;;;;;;;33.13;23.75;;;10.00;99.90;;;;;;5035361;28;20147;-57
2022/03/15 11:20:36;;;;;;;37.53;24.42;;;9.90;99.90;;;;;;5052982;28;20555;-57
2022/03/15 11:23:05;;;;;;;33.90;24.77;;;10.20;99.90;;;;;;5053182;28;20403;-57
2022/03/15 11:25:35;;;;;;;37.83;23.75;;;10.20;99.90;;;;;;5053148;28;20049;-57
2022/03/15 11:28:04;;;;;;;41.22;25.75;;;10.40;99.90;;;;;;5051821;28;20041;-57
2022/03/15 11:30:30;;;;;;;37.15;24.23;;;10.20;99.90;;;;;;5052942;28;20037;-57
2022/03/15 11:32:56;;;;;;;34.55;24.23;;;10.50;99.90;;;;;;5052769;28;20039;-57
2022/03/15 11:35:23;;;;;;;31.92;23.15;;;10.60;99.90;;;;;;5051808;28;20044;-57
2022/03/15 11:37:52;;;;;;;29.33;22.58;;;10.70;99.90;;;;;;5051848;28;20099;-60
2022/03/15 11:40:19;;;;;;;33.80;21.83;;;10.90;99.90;;;;;;5053087;28;20044;-60
2022/03/15 11:42:48;;;;;;;30.25;21.98;;;11.20;99.90;;;;;;5052893;28;20471;-60
2022/03/15 11:45:24;;;;;;;31.38;21.35;;;11.20;99.90;;;;;;5052722;28;20390;-60
2022/03/15 11:47:55;;;;;;;;;;;10.90;99.90;;;;;;5053476;28;20186;-60
2022/03/15 11:50:40;;;;;;;29.60;21.00;;;10.60;99.90;;;;;;5052936;28;20323;-60
2022/03/15 11:53:22;;;;;;;30.52;20.67;;;11.00;99.90;;;;;;5052841;28;20057;-60
2022/03/15 11:56:07;;;;;;;33.85;20.73;;;10.90;99.90;;;;;;5053019;28;20045;-61
2022/03/15 11:58:32;;;;;;;27.20;19.92;;;10.90;99.90;;;;;;5052827;28;20499;-61
2022/03/15 12:01:12;;;;;;;28.77;19.77;;;11.00;99.90;;;;;;5052790;28;20029;-61
2022/03/15 12:03:54;;;;;;;32.33;18.80;;;11.10;99.90;;;;;;5052777;28;20033;-57
2022/03/15 12:06:28;;;;;;;29.67;19.45;;;12.00;99.90;;;;;;5052532;28;20045;-57
2022/03/15 12:08:57;;;;;;;28.95;19.65;;;11.10;99.90;;;;;;5052584;28;20044;-57
2022/03/15 12:11:42;;;;;;;33.35;19.17;;;11.10;99.90;;;;;;5052714;28;20045;-57
2022/03/15 12:14:16;;;;;;;33.13;21.05;;;11.70;99.90;;;;;;5056239;28;20462;-57
2022/03/15 12:16:47;;;;;;;36.70;22.88;;;11.30;99.90;;;;;;5056119;28;20122;-57
2022/03/15 12:22:02;;;;;;;33.22;20.92;;;11.20;99.90;;;;;;5056182;28;20101;-57
2022/03/15 12:24:40;;;;;;;31.02;19.08;;;11.00;99.90;;;;;;5056177;28;20048;-57
2022/03/15 12:27:14;;;;;;;30.88;17.95;;;11.30;99.90;;;;;;5055816;28;20049;-57
2022/03/15 12:29:53;;;;;;;30.35;17.13;;;11.60;99.90;;;;;;5056155;28;20116;-57
2022/03/15 12:32:20;;;;;;;26.98;17.70;;;11.40;99.90;;;;;;5038321;28;20037;-57
2022/03/15 12:34:56;;;;;;;27.08;16.98;;;11.70;99.90;;;;;;5055799;28;20554;-57
2022/03/15 12:37:37;;;;;;;25.42;16.50;;;11.50;99.90;;;;;;5055735;28;20037;-57
2022/03/15 12:40:09;;;;;;;23.48;15.82;;;11.20;99.90;;;;;;5055743;28;20044;-57
2022/03/15 12:42:35;;;;;;;26.88;16.50;;;11.30;99.90;;;;;;5055849;28;20056;-57
2022/03/15 12:45:10;;;;;;;24.80;16.23;;;11.50;99.90;;;;;;5055719;28;20075;-57
2022/03/15 12:47:46;;;;;;;25.45;17.35;;;11.50;99.90;;;;;;5054524;28;20047;-57
2022/03/15 12:50:15;;;;;;;26.88;17.23;;;11.90;99.90;;;;;;5054446;28;20068;-57
2022/03/15 12:52:51;;;;;;;27.05;16.13;;;11.90;99.90;;;;;;5055496;28;20060;-57
2022/03/15 12:55:24;;;;;;;24.88;16.63;;;11.20;99.90;;;;;;5054575;28;20063;-57
2022/03/15 12:58:02;;;;;;;24.40;15.80;;;11.70;99.90;;;;;;5055606;28;20103;-57
2022/03/15 13:00:32;;;;;;;30.08;15.35;;;12.30;99.90;;;;;;5054111;28;20095;-57
2022/03/15 13:02:58;;;;;;;29.50;15.93;;;12.00;99.90;;;;;;5055515;28;20511;-57
2022/03/15 13:05:25;;;;;;;22.65;15.38;;;11.90;99.90;;;;;;5055220;28;20503;-57
2022/03/15 13:07:53;;;;;;;24.50;14.73;;;12.20;99.90;;;;;;5055292;28;20044;-57
2022/03/15 13:10:36;;;;;;;24.10;14.80;;;12.20;99.90;;;;;;5055209;28;20037;-57